createdAt,value
2022-08-22T00:03:09.242Z,99.84
2022-08-22T00:03:54.168Z,100.00
2022-08-22T00:09:08.572Z,100.00
2022-08-22T00:14:24.778Z,100.00
2022-08-22T00:19:42.079Z,100.00
2022-08-22T00:25:03.390Z,100.00
2022-08-22T00:30:15.886Z,100.00
2022-08-22T00:35:34.139Z,100.00
2022-08-22T00:40:58.013Z,100.00
2022-08-22T00:46:32.883Z,99.99
2022-08-22T00:51:54.292Z,100.00
2022-08-22T00:57:02.796Z,100.00
2022-08-22T01:02:32.157Z,99.99
2022-08-22T01:08:04.331Z,99.99
2022-08-22T01:13:36.876Z,100.00
2022-08-22T01:19:07.277Z,100.00
2022-08-22T01:25:08.432Z,100.00
2022-08-22T01:30:32.994Z,100.00
2022-08-22T01:35:44.985Z,100.00
2022-08-22T01:40:54.237Z,100.00
2022-08-22T01:45:57.100Z,100.00
2022-08-22T01:51:13.788Z,100.00
2022-08-22T01:56:20.099Z,100.00
2022-08-22T02:01:33.924Z,100.00
2022-08-22T02:06:42.998Z,100.00
2022-08-22T02:12:21.370Z,100.00
2022-08-22T02:17:48.848Z,100.00
2022-08-22T02:22:59.632Z,100.00
2022-08-22T02:28:18.664Z,100.00
2022-08-22T02:33:31.837Z,100.00
2022-08-22T02:39:00.913Z,100.00
2022-08-22T02:44:03.552Z,100.00
2022-08-22T02:49:17.002Z,100.00
2022-08-22T02:54:28.109Z,100.00
2022-08-22T03:00:31.819Z,100.00
2022-08-22T03:05:38.620Z,100.00
2022-08-22T03:10:47.714Z,100.00
2022-08-22T03:16:03.890Z,100.00
2022-08-22T03:21:32.129Z,100.00
2022-08-22T03:26:56.853Z,100.00
2022-08-22T03:32:20.537Z,100.00
2022-08-22T03:37:40.714Z,100.00
2022-08-22T03:43:02.133Z,100.00
2022-08-22T03:48:42.452Z,100.00
2022-08-22T03:54:00.128Z,100.00
2022-08-22T03:59:11.341Z,100.00
2022-08-22T04:04:22.792Z,100.00
2022-08-22T04:09:31.257Z,100.00
2022-08-22T04:15:10.893Z,100.00
2022-08-22T04:20:44.565Z,100.00
2022-08-22T04:25:55.324Z,100.00
2022-08-22T04:31:06.310Z,100.00
2022-08-22T04:36:20.259Z,100.00
2022-08-22T04:41:31.256Z,100.00
2022-08-22T04:46:39.476Z,100.00
2022-08-22T04:51:47.158Z,100.00
2022-08-22T04:56:52.524Z,100.00
2022-08-22T05:01:59.358Z,100.00
2022-08-22T05:07:19.836Z,100.00
2022-08-22T05:12:38.441Z,100.00
2022-08-22T05:17:44.321Z,100.00
2022-08-22T05:22:52.968Z,100.00
2022-08-22T05:28:12.207Z,100.00
2022-08-22T05:33:24.440Z,100.00
2022-08-22T05:38:34.917Z,100.00
2022-08-22T05:43:42.330Z,99.70
2022-08-22T05:48:57.594Z,99.52
2022-08-22T05:54:14.632Z,99.29
2022-08-22T05:59:17.456Z,98.82
2022-08-22T06:04:35.495Z,98.84
2022-08-22T06:09:47.073Z,98.48
2022-08-22T06:15:02.795Z,98.28
2022-08-22T06:20:21.430Z,98.52
2022-08-22T06:25:30.142Z,97.88
2022-08-22T06:30:35.794Z,97.04
2022-08-22T06:36:06.039Z,96.23
2022-08-22T06:41:11.093Z,96.19
2022-08-22T06:46:16.543Z,96.15
2022-08-22T06:51:20.880Z,95.67
2022-08-22T06:56:33.949Z,95.42
2022-08-22T07:01:45.647Z,95.17
2022-08-22T07:06:51.477Z,94.71
2022-08-22T07:11:59.342Z,93.92
2022-08-22T07:17:07.678Z,92.11
2022-08-22T07:22:15.105Z,91.16
2022-08-22T07:27:45.874Z,89.30
2022-08-22T07:33:25.323Z,88.73
2022-08-22T07:38:42.770Z,87.59
2022-08-22T07:43:49.001Z,87.06
2022-08-22T07:49:09.444Z,86.71
2022-08-22T07:54:28.021Z,86.78
2022-08-22T07:59:35.422Z,85.63
2022-08-22T08:04:40.728Z,84.60
2022-08-22T08:09:54.347Z,84.24
2022-08-22T08:14:58.402Z,83.83
2022-08-22T08:20:14.682Z,84.02
2022-08-22T08:25:25.883Z,82.40
2022-08-22T08:30:48.481Z,81.28
2022-08-22T08:36:03.199Z,79.96
2022-08-22T08:41:41.070Z,79.09
2022-08-22T08:46:59.134Z,78.37
2022-08-22T08:52:21.102Z,75.09
2022-08-22T08:58:10.290Z,72.12
2022-08-22T09:03:32.622Z,67.83
2022-08-22T09:09:01.650Z,65.60
2022-08-22T09:14:32.244Z,63.18
2022-08-22T09:20:15.489Z,63.07
2022-08-22T09:25:42.274Z,60.06
2022-08-22T09:31:16.935Z,55.63
2022-08-22T09:36:38.510Z,52.05
2022-08-22T09:41:44.999Z,51.80
2022-08-22T09:47:25.699Z,55.42
2022-08-22T09:52:47.110Z,57.84
2022-08-22T09:58:01.829Z,60.68
2022-08-22T10:03:14.641Z,63.04
2022-08-22T10:08:36.999Z,64.13
2022-08-22T10:14:00.516Z,65.04
2022-08-22T10:19:18.082Z,65.21
2022-08-22T10:24:34.148Z,64.54
2022-08-22T10:30:10.854Z,62.76
2022-08-22T10:35:33.815Z,62.33
2022-08-22T10:41:02.629Z,62.07
2022-08-22T10:46:19.101Z,61.89
2022-08-22T10:51:44.666Z,62.13
2022-08-22T10:57:00.627Z,61.44
2022-08-22T11:02:09.866Z,60.41
2022-08-22T11:07:29.885Z,59.49
2022-08-22T11:12:50.614Z,58.67
2022-08-22T11:18:24.353Z,56.22
2022-08-22T11:23:37.560Z,52.27
2022-08-22T11:29:13.279Z,46.18
2022-08-22T11:34:44.911Z,43.02
2022-08-22T11:40:20.370Z,41.61
2022-08-22T11:45:35.861Z,42.31
2022-08-22T11:50:55.793Z,43.29
2022-08-22T11:56:22.679Z,44.01
2022-08-22T12:01:42.203Z,44.35
2022-08-22T12:07:07.300Z,41.56
2022-08-22T12:12:38.567Z,41.20
2022-08-22T12:18:01.345Z,42.38
2022-08-22T12:23:16.873Z,41.90
2022-08-22T12:28:43.836Z,42.43
2022-08-22T12:33:58.687Z,42.97
2022-08-22T12:39:41.075Z,43.68
2022-08-22T12:45:18.158Z,44.62
2022-08-22T12:50:31.360Z,46.31
2022-08-22T12:55:55.605Z,47.09
2022-08-22T13:01:05.010Z,47.91
2022-08-22T13:06:34.033Z,48.03
2022-08-22T13:11:43.647Z,46.59
2022-08-22T13:16:51.333Z,43.70
2022-08-22T13:22:01.510Z,42.01
2022-08-22T13:27:15.479Z,41.05
2022-08-22T13:32:28.087Z,40.86
2022-08-22T13:37:43.407Z,40.30
2022-08-22T13:42:50.253Z,39.51
2022-08-22T13:48:03.699Z,38.31
2022-08-22T13:53:28.445Z,36.17
2022-08-22T13:58:52.878Z,34.18
2022-08-22T14:04:28.813Z,34.42
2022-08-22T14:09:41.057Z,35.74
2022-08-22T14:14:49.246Z,37.62
2022-08-22T14:20:03.035Z,39.87
2022-08-22T14:25:21.311Z,42.11
2022-08-22T14:30:39.355Z,44.25
2022-08-22T14:35:52.648Z,45.84
2022-08-22T14:41:06.316Z,47.54
2022-08-22T14:46:14.716Z,48.77
2022-08-22T14:51:23.481Z,49.89
2022-08-22T14:56:29.842Z,50.79
2022-08-22T15:01:37.336Z,51.87
2022-08-22T15:06:52.715Z,53.01
2022-08-22T15:11:56.032Z,54.22
2022-08-22T15:17:02.053Z,54.70
2022-08-22T15:22:15.158Z,55.37
2022-08-22T15:27:20.509Z,55.10
2022-08-22T15:32:29.821Z,54.20
2022-08-22T15:37:52.207Z,53.65
2022-08-22T15:42:58.326Z,53.99
2022-08-22T15:48:05.561Z,54.37
2022-08-22T15:53:18.902Z,54.80
2022-08-22T15:58:24.921Z,54.79
2022-08-22T16:03:31.940Z,55.08
2022-08-22T16:08:46.961Z,55.36
2022-08-22T16:14:21.760Z,55.68
2022-08-22T16:19:27.823Z,56.01
2022-08-22T16:24:33.863Z,56.91
2022-08-22T16:29:41.878Z,57.88
2022-08-22T16:34:46.056Z,59.03
2022-08-22T16:39:58.632Z,59.82
2022-08-22T16:45:13.443Z,60.77
2022-08-22T16:50:16.577Z,61.85
2022-08-22T16:55:28.617Z,62.61
2022-08-22T17:00:34.313Z,63.28
2022-08-22T17:06:32.591Z,64.11
2022-08-22T17:12:03.308Z,65.20
2022-08-22T17:17:40.789Z,66.03
2022-08-22T17:23:03.231Z,66.62
2022-08-22T17:28:24.312Z,67.14
2022-08-22T17:33:52.898Z,67.11
2022-08-22T17:39:29.123Z,67.53
2022-08-22T17:44:43.403Z,68.34
2022-08-22T17:49:55.139Z,68.85
2022-08-22T17:55:05.589Z,69.59
2022-08-22T18:00:33.797Z,70.24
2022-08-22T18:05:47.000Z,70.44
2022-08-22T18:11:02.079Z,71.21
2022-08-22T18:16:08.310Z,71.80
2022-08-22T18:21:27.088Z,72.40
2022-08-22T18:26:42.073Z,72.67
2022-08-22T18:32:00.624Z,73.05
2022-08-22T18:37:24.639Z,73.13
2022-08-22T18:42:47.797Z,73.47
2022-08-22T18:47:57.224Z,73.94
2022-08-22T18:53:00.809Z,74.43
2022-08-22T18:58:22.267Z,75.02
2022-08-22T19:03:39.929Z,75.54
2022-08-22T19:08:59.670Z,75.87
2022-08-22T19:14:35.820Z,76.32
2022-08-22T19:20:35.102Z,76.75
2022-08-22T19:26:16.387Z,77.09
2022-08-22T19:31:41.952Z,77.79
2022-08-22T19:36:46.335Z,78.21
2022-08-22T19:41:54.382Z,78.57
2022-08-22T19:47:09.071Z,79.09
2022-08-22T19:52:30.356Z,79.49
2022-08-22T19:57:52.819Z,79.81
2022-08-22T20:03:04.231Z,80.32
2022-08-22T20:08:19.082Z,81.10
2022-08-22T20:13:25.507Z,81.27
2022-08-22T20:19:05.063Z,81.50
2022-08-22T20:24:15.566Z,81.84
2022-08-22T20:29:20.009Z,81.96
2022-08-22T20:34:30.433Z,82.17
2022-08-22T20:39:50.610Z,82.25
2022-08-22T20:45:12.158Z,82.55
2022-08-22T20:50:20.445Z,82.78
2022-08-22T20:55:27.260Z,82.56
2022-08-22T21:00:42.429Z,83.12
2022-08-22T21:05:46.399Z,83.29
2022-08-22T21:11:24.653Z,83.82
2022-08-22T21:16:31.628Z,84.00
2022-08-22T21:21:35.118Z,83.68
2022-08-22T21:26:52.082Z,83.69
2022-08-22T21:31:59.318Z,84.14
2022-08-22T21:37:14.333Z,84.23
2022-08-22T21:42:27.445Z,84.40
2022-08-22T21:47:37.103Z,84.54
2022-08-22T21:52:56.270Z,84.74
2022-08-22T21:58:05.331Z,84.73
2022-08-22T22:03:08.243Z,85.20
2022-08-22T22:08:11.725Z,85.28
2022-08-22T22:13:15.721Z,85.35
2022-08-22T22:18:25.063Z,85.85
2022-08-22T22:23:28.632Z,86.45
2022-08-22T22:28:36.617Z,86.66
2022-08-22T22:33:41.724Z,87.01
2022-08-22T22:38:45.494Z,87.63
2022-08-22T22:43:48.426Z,87.68
2022-08-22T22:48:51.098Z,87.71
2022-08-22T22:53:56.095Z,87.90
2022-08-22T22:59:12.810Z,87.85
2022-08-22T23:04:16.565Z,88.17
2022-08-22T23:09:19.261Z,88.51
2022-08-22T23:14:22.514Z,88.83
2022-08-22T23:19:26.799Z,89.41
2022-08-22T23:24:31.245Z,89.71
2022-08-22T23:29:34.737Z,89.98
2022-08-22T23:34:46.295Z,90.92
2022-08-22T23:39:49.989Z,91.15
2022-08-22T23:44:52.758Z,91.67
2022-08-22T23:49:55.499Z,92.00
2022-08-22T23:54:58.185Z,92.11
